createdAt,value
2022-12-06T00:02:17.613Z,99408.38
2022-12-06T00:05:19.387Z,99416.88
2022-12-06T00:08:21.267Z,99412.00
2022-12-06T00:11:34.167Z,99421.59
2022-12-06T00:14:35.931Z,99415.44
2022-12-06T00:17:41.620Z,99412.28
2022-12-06T00:20:44.799Z,99418.72
2022-12-06T00:23:48.899Z,99407.75
2022-12-06T00:26:51.213Z,99399.19
2022-12-06T00:29:52.953Z,99377.38
2022-12-06T00:32:54.774Z,99408.03
2022-12-06T00:36:02.382Z,99381.84
2022-12-06T00:39:07.579Z,99373.63
2022-12-06T00:42:09.390Z,99370.13
2022-12-06T00:45:11.353Z,99367.72
2022-12-06T00:48:13.177Z,99360.78
2022-12-06T00:51:16.655Z,99383.69
2022-12-06T00:54:18.527Z,99377.31
2022-12-06T00:57:20.223Z,99372.53
2022-12-06T01:00:22.027Z,99362.38
2022-12-06T01:03:24.076Z,99380.25
2022-12-06T01:06:28.766Z,99361.31
2022-12-06T01:09:31.118Z,99363.44
2022-12-06T01:12:32.862Z,99370.31
2022-12-06T01:15:38.782Z,99354.09
2022-12-06T01:18:41.426Z,99370.88
2022-12-06T01:21:43.631Z,99346.41
2022-12-06T01:24:47.315Z,99370.59
2022-12-06T01:27:49.062Z,99370.88
2022-12-06T01:30:50.912Z,99355.69
2022-12-06T01:33:52.816Z,99336.53
2022-12-06T01:36:54.556Z,99345.56
2022-12-06T01:39:56.439Z,99343.91
2022-12-06T01:42:58.144Z,99351.13
2022-12-06T01:46:06.958Z,99366.88
2022-12-06T01:53:07.046Z,99355.69
2022-12-06T01:56:09.288Z,99364.69
2022-12-06T01:59:12.006Z,99356.13
2022-12-06T02:02:13.998Z,99359.84
2022-12-06T02:05:17.435Z,99359.34
2022-12-06T02:08:20.979Z,99360.41
2022-12-06T02:11:22.872Z,99356.69
2022-12-06T02:14:29.519Z,99355.91
2022-12-06T02:18:00.340Z,99355.09
2022-12-06T02:21:34.316Z,99351.38
2022-12-06T02:24:54.825Z,99343.09
2022-12-06T02:28:22.515Z,99350.84
2022-12-06T02:31:27.350Z,99346.50
2022-12-06T02:34:29.005Z,99349.47
2022-12-06T02:37:40.359Z,99341.19
2022-12-06T02:40:58.892Z,99356.41
2022-12-06T02:44:06.352Z,99346.03
2022-12-06T02:47:11.611Z,99351.59
2022-12-06T02:50:31.821Z,99343.88
2022-12-06T02:53:36.989Z,99346.03
2022-12-06T02:56:38.782Z,99334.34
2022-12-06T02:59:50.745Z,99349.00
2022-12-06T03:03:04.502Z,99352.16
2022-12-06T03:06:11.979Z,99350.84
2022-12-06T03:09:22.899Z,99358.66
2022-12-06T03:12:33.463Z,99358.94
2022-12-06T03:15:56.245Z,99350.41
2022-12-06T03:19:31.771Z,99346.41
2022-12-06T03:22:47.180Z,99336.19
2022-12-06T03:25:51.325Z,99341.31
2022-12-06T03:28:56.602Z,99331.19
2022-12-06T03:32:03.135Z,99331.13
2022-12-06T03:35:10.118Z,99335.44
2022-12-06T03:38:22.013Z,99329.00
2022-12-06T03:41:28.600Z,99330.06
2022-12-06T03:44:30.750Z,99327.44
2022-12-06T03:47:58.437Z,99320.78
2022-12-06T03:51:04.613Z,99327.44
2022-12-06T03:54:08.372Z,99329.00
2022-12-06T03:57:10.787Z,99326.88
2022-12-06T04:00:13.216Z,99320.16
2022-12-06T04:03:14.869Z,99319.66
2022-12-06T04:06:16.741Z,99317.75
2022-12-06T04:09:37.109Z,99319.66
2022-12-06T04:12:57.266Z,99318.31
2022-12-06T04:16:00.956Z,99300.22
2022-12-06T04:19:02.768Z,99320.50
2022-12-06T04:22:23.010Z,99303.44
2022-12-06T04:25:24.694Z,99299.09
2022-12-06T04:28:44.964Z,99302.50
2022-12-06T04:32:05.142Z,99293.97
2022-12-06T04:35:25.385Z,99298.75
2022-12-06T04:38:42.357Z,99304.94
2022-12-06T04:42:02.573Z,99306.28
2022-12-06T04:45:05.928Z,99314.25
2022-12-06T04:48:07.492Z,99311.88
2022-12-06T04:51:12.995Z,99307.56
2022-12-06T04:54:14.771Z,99293.72
2022-12-06T04:57:17.302Z,99309.44
2022-12-06T05:00:19.297Z,99308.13
2022-12-06T05:03:20.965Z,99305.19
2022-12-06T05:06:22.698Z,99298.28
2022-12-06T05:09:25.038Z,99298.78
2022-12-06T05:12:26.761Z,99301.16
2022-12-06T05:15:29.414Z,99288.88
2022-12-06T05:18:31.890Z,99287.53
2022-12-06T05:21:33.606Z,99291.81
2022-12-06T05:24:35.200Z,99302.19
2022-12-06T05:27:36.825Z,99289.88
2022-12-06T05:30:38.500Z,99293.34
2022-12-06T05:33:40.369Z,99293.06
2022-12-06T05:36:44.864Z,99278.16
2022-12-06T05:39:46.569Z,99282.72
2022-12-06T05:42:49.836Z,99284.56
2022-12-06T05:45:54.568Z,99282.47
2022-12-06T05:48:56.277Z,99292.59
2022-12-06T05:52:03.686Z,99287.31
2022-12-06T05:55:06.060Z,99284.63
2022-12-06T05:58:08.420Z,99281.44
2022-12-06T06:01:10.140Z,99278.53
2022-12-06T06:04:11.772Z,99281.22
2022-12-06T06:07:13.346Z,99284.06
2022-12-06T06:10:16.151Z,99286.75
2022-12-06T06:13:17.940Z,99288.34
2022-12-06T06:16:19.614Z,99291.03
2022-12-06T06:19:23.895Z,99288.91
2022-12-06T06:22:25.507Z,99286.25
2022-12-06T06:25:27.209Z,99287.41
2022-12-06T06:28:28.867Z,99290.34
2022-12-06T06:31:30.568Z,99302.91
2022-12-06T06:34:32.319Z,99290.63
2022-12-06T06:37:33.958Z,99289.06
2022-12-06T06:40:36.142Z,99286.94
2022-12-06T06:43:37.746Z,99290.16
2022-12-06T06:46:39.560Z,99292.56
2022-12-06T06:49:41.345Z,99295.84
2022-12-06T06:52:43.112Z,99287.56
2022-12-06T06:55:45.853Z,99292.91
2022-12-06T06:58:47.475Z,99291.13
2022-12-06T07:01:49.641Z,99292.97
2022-12-06T07:04:51.969Z,99286.31
2022-12-06T07:07:53.936Z,99276.44
2022-12-06T07:10:56.844Z,99292.16
2022-12-06T07:13:58.565Z,99286.31
2022-12-06T07:17:00.292Z,99292.44
2022-12-06T07:20:02.252Z,99288.72
2022-12-06T07:23:04.861Z,99286.09
2022-12-06T07:26:24.821Z,99305.28
2022-12-06T07:29:26.668Z,99307.44
2022-12-06T07:32:28.521Z,99292.50
2022-12-06T07:35:55.678Z,99299.19
2022-12-06T07:38:54.225Z,99309.34
2022-12-06T07:42:14.759Z,99312.56
2022-12-06T07:45:24.437Z,99321.38
2022-12-06T07:48:27.233Z,99314.22
2022-12-06T07:51:29.113Z,99319.81
2022-12-06T07:54:30.885Z,99323.00
2022-12-06T07:57:35.317Z,99310.25
2022-12-06T08:00:41.609Z,99321.44
2022-12-06T08:03:43.331Z,99333.47
2022-12-06T08:06:45.577Z,99326.50
2022-12-06T08:09:47.965Z,99333.94
2022-12-06T08:12:49.714Z,99317.94
2022-12-06T08:15:51.585Z,99337.91
2022-12-06T08:18:53.491Z,99329.94
2022-12-06T08:21:55.248Z,99331.50
2022-12-06T08:24:57.066Z,99329.59
2022-12-06T08:27:59.081Z,99326.09
2022-12-06T08:31:05.133Z,99331.19
2022-12-06T08:34:07.799Z,99327.69
2022-12-06T08:37:10.357Z,99320.81
2022-12-06T08:40:12.221Z,99325.84
2022-12-06T08:43:14.075Z,99328.47
2022-12-06T08:46:15.965Z,99331.38
2022-12-06T08:49:18.593Z,99335.19
2022-12-06T08:52:20.569Z,99336.19
2022-12-06T08:55:22.353Z,99339.16
2022-12-06T08:58:24.012Z,99330.91
2022-12-06T09:01:34.087Z,99339.69
2022-12-06T09:04:37.747Z,99343.13
2022-12-06T09:07:39.628Z,99335.38
2022-12-06T09:10:43.071Z,99326.13
2022-12-06T09:13:45.490Z,99345.81
2022-12-06T09:16:47.205Z,99343.66
2022-12-06T09:19:48.998Z,99337.78
2022-12-06T09:22:50.715Z,99348.94
2022-12-06T09:25:52.462Z,99349.78
2022-12-06T09:28:55.259Z,99349.50
2022-12-06T09:31:57.001Z,99352.44
2022-12-06T09:34:58.693Z,99352.69
2022-12-06T09:38:03.655Z,99351.63
2022-12-06T09:41:35.824Z,99347.03
2022-12-06T09:45:01.794Z,99352.16
2022-12-06T09:48:12.517Z,99356.41
2022-12-06T09:51:49.522Z,99355.03
2022-12-06T09:55:00.701Z,99359.84
2022-12-06T09:58:32.014Z,99356.69
2022-12-06T10:01:58.724Z,99356.47
2022-12-06T10:05:21.558Z,99361.50
2022-12-06T10:08:31.004Z,99355.59
2022-12-06T10:11:52.599Z,99358.53
2022-12-06T10:15:32.403Z,99362.84
2022-12-06T10:18:59.090Z,99356.94
2022-12-06T10:36:02.136Z,99331.75
2022-12-06T10:39:29.237Z,99323.66
2022-12-06T10:42:42.223Z,99331.47
2022-12-06T10:46:18.838Z,99330.16
2022-12-06T10:49:48.615Z,99329.00
2022-12-06T10:53:01.545Z,99318.91
2022-12-06T10:56:28.574Z,99325.31
2022-12-06T10:59:43.015Z,99316.00
2022-12-06T11:03:15.841Z,99324.88
2022-12-06T11:06:30.820Z,99332.34
2022-12-06T11:09:40.637Z,99321.75
2022-12-06T11:12:43.684Z,99307.91
2022-12-06T11:15:54.097Z,99322.53
2022-12-06T11:19:36.704Z,99324.13
2022-12-06T11:22:45.386Z,99328.66
2022-12-06T11:26:21.068Z,99307.03
2022-12-06T11:29:23.093Z,99317.63
2022-12-06T11:32:25.048Z,99324.88
2022-12-06T11:35:28.735Z,99310.97
2022-12-06T11:38:31.375Z,99315.16
2022-12-06T11:41:36.743Z,99315.44
2022-12-06T11:44:38.701Z,99315.16
2022-12-06T11:47:40.527Z,99311.47
2022-12-06T11:50:45.215Z,99315.97
2022-12-06T11:54:07.661Z,99315.66
2022-12-06T11:57:25.979Z,99315.78
2022-12-06T12:00:30.866Z,99302.41
2022-12-06T12:03:36.038Z,99314.75
2022-12-06T12:06:37.804Z,99319.81
2022-12-06T12:09:56.857Z,99318.72
2022-12-06T12:13:30.979Z,99299.19
2022-12-06T12:16:37.035Z,99298.06
2022-12-06T12:19:49.400Z,99300.13
2022-12-06T12:23:17.784Z,99290.53
2022-12-06T12:26:21.708Z,99284.75
2022-12-06T12:29:23.539Z,99263.34
2022-12-06T12:32:25.322Z,99288.50
2022-12-06T12:35:30.257Z,99291.13
2022-12-06T12:38:37.625Z,99288.91
2022-12-06T12:41:43.814Z,99296.44
2022-12-06T12:44:46.317Z,99293.22
2022-12-06T12:48:20.736Z,99299.91
2022-12-06T12:51:33.023Z,99298.03
2022-12-06T12:54:36.623Z,99292.19
2022-12-06T12:57:38.604Z,99286.31
2022-12-06T13:00:43.863Z,99282.34
2022-12-06T13:03:51.651Z,99280.69
2022-12-06T13:06:56.378Z,99283.56
2022-12-06T13:10:07.679Z,99285.22
2022-12-06T13:13:39.852Z,99290.00
2022-12-06T13:16:42.460Z,99288.16
2022-12-06T13:19:53.025Z,99303.44
2022-12-06T13:23:01.106Z,99294.69
2022-12-06T13:26:17.524Z,99280.28
2022-12-06T13:29:34.515Z,99288.03
2022-12-06T13:32:44.960Z,99280.03
2022-12-06T13:35:56.981Z,99271.50
2022-12-06T13:38:58.776Z,99280.22
2022-12-06T13:42:18.034Z,99252.03
2022-12-06T13:45:39.334Z,99280.56
2022-12-06T13:49:00.692Z,99286.44
2022-12-06T13:52:02.458Z,99273.94
2022-12-06T13:55:26.111Z,99275.28
2022-12-06T13:58:27.762Z,99273.66
2022-12-06T14:01:35.523Z,99282.22
2022-12-06T14:04:42.550Z,99283.03
2022-12-06T14:07:44.301Z,99270.50
2022-12-06T14:10:46.476Z,99284.69
2022-12-06T14:14:09.589Z,99281.75
2022-12-06T14:17:26.936Z,99286.53
2022-12-06T14:20:35.959Z,99282.81
2022-12-06T14:23:47.345Z,99286.53
2022-12-06T14:26:49.001Z,99283.59
2022-12-06T14:30:01.961Z,99292.38
2022-12-06T14:33:22.122Z,99300.38
2022-12-06T14:36:28.193Z,99281.13
2022-12-06T14:39:31.590Z,99288.84
2022-12-06T14:42:51.642Z,99289.69
2022-12-06T14:45:54.285Z,99286.47
2022-12-06T14:49:14.803Z,99283.81
2022-12-06T14:52:24.721Z,99294.50
2022-12-06T14:55:28.100Z,99287.56
2022-12-06T14:58:48.742Z,99268.13
2022-12-06T15:01:54.370Z,99272.91
2022-12-06T15:04:56.461Z,99251.09
2022-12-06T15:07:58.485Z,99249.22
2022-12-06T15:11:11.286Z,99248.72
2022-12-06T15:14:18.862Z,99268.31
2022-12-06T15:17:22.341Z,99270.44
2022-12-06T15:20:24.467Z,99242.50
2022-12-06T15:23:40.980Z,99253.97
2022-12-06T15:26:42.675Z,99262.97
2022-12-06T15:29:44.373Z,99261.13
2022-12-06T15:32:46.038Z,99244.41
2022-12-06T15:35:48.211Z,99267.28
2022-12-06T15:38:50.518Z,99257.44
2022-12-06T15:41:53.689Z,99261.44
2022-12-06T15:44:55.440Z,99256.72
2022-12-06T15:47:57.133Z,99249.00
2022-12-06T15:50:59.963Z,99254.31
2022-12-06T15:54:02.938Z,99241.81
2022-12-06T15:57:04.602Z,99247.09
2022-12-06T16:00:06.945Z,99246.03
2022-12-06T16:03:08.902Z,99262.28
2022-12-06T16:06:15.959Z,99260.38
2022-12-06T16:09:19.372Z,99262.56
2022-12-06T16:12:21.005Z,99249.53
2022-12-06T16:15:22.666Z,99256.16
2022-12-06T16:18:24.362Z,99256.47
2022-12-06T16:21:30.495Z,99274.34
2022-12-06T16:24:32.150Z,99265.03
2022-12-06T16:27:33.993Z,99271.38
2022-12-06T16:30:35.998Z,99261.00
2022-12-06T16:33:37.678Z,99257.34
2022-12-06T16:37:00.596Z,99249.34
2022-12-06T16:40:02.443Z,99269.06
2022-12-06T16:43:04.151Z,99266.41
2022-12-06T16:46:21.943Z,99254.41
2022-12-06T16:49:45.675Z,99275.97
2022-12-06T16:52:49.185Z,99269.59
2022-12-06T16:55:50.771Z,99267.75
2022-12-06T16:58:52.468Z,99278.69
2022-12-06T17:01:55.285Z,99278.94
2022-12-06T17:05:01.112Z,99271.75
2022-12-06T17:08:03.568Z,99273.88
2022-12-06T17:11:25.400Z,99276.03
2022-12-06T17:14:27.270Z,99279.47
2022-12-06T17:17:29.577Z,99267.22
2022-12-06T17:20:31.241Z,99278.13
2022-12-06T17:23:32.924Z,99274.94
2022-12-06T17:26:34.682Z,99269.06
2022-12-06T17:29:36.515Z,99262.72
2022-12-06T17:32:38.134Z,99273.88
2022-12-06T17:35:39.815Z,99278.13
2022-12-06T17:38:41.529Z,99277.63
2022-12-06T17:42:01.946Z,99281.38
2022-12-06T17:45:05.001Z,99270.44
2022-12-06T17:48:06.959Z,99272.56
2022-12-06T17:51:08.893Z,99285.34
2022-12-06T17:54:10.843Z,99284.31
2022-12-06T17:57:17.195Z,99289.94
2022-12-06T18:00:19.211Z,99299.78
2022-12-06T18:03:21.145Z,99296.03
2022-12-06T18:06:25.375Z,99292.56
2022-12-06T18:09:27.152Z,99293.91
2022-12-06T18:12:32.121Z,99296.84
2022-12-06T18:15:38.188Z,99292.28
2022-12-06T18:18:41.253Z,99289.38
2022-12-06T18:21:43.316Z,99289.13
2022-12-06T18:24:44.993Z,99285.91
2022-12-06T18:27:46.731Z,99291.50
2022-12-06T18:30:48.303Z,99287.25
2022-12-06T18:33:49.917Z,99283.00
2022-12-06T18:36:51.855Z,99290.72
2022-12-06T18:39:53.471Z,99290.97
2022-12-06T18:42:55.185Z,99289.38
2022-12-06T18:46:01.697Z,99292.06
2022-12-06T18:49:03.386Z,99296.38
2022-12-06T18:52:05.116Z,99294.78
2022-12-06T18:55:08.671Z,99294.78
2022-12-06T18:58:10.599Z,99296.41
2022-12-06T19:01:24.054Z,99300.69
2022-12-06T19:04:25.671Z,99299.09
2022-12-06T19:07:27.260Z,99303.38
2022-12-06T19:10:29.494Z,99300.16
2022-12-06T19:13:31.279Z,99298.31
2022-12-06T19:16:37.713Z,99299.06
2022-12-06T19:19:40.775Z,99291.09
2022-12-06T19:22:42.582Z,99290.53
2022-12-06T19:25:44.135Z,99292.13
2022-12-06T19:28:45.734Z,99283.59
2022-12-06T19:31:47.405Z,99290.53
2022-12-06T19:34:50.218Z,99292.13
2022-12-06T19:37:52.725Z,99285.19
2022-12-06T19:40:55.309Z,99294.78
2022-12-06T19:44:15.296Z,99283.56
2022-12-06T19:47:16.996Z,99287.59
2022-12-06T19:50:18.544Z,99292.66
2022-12-06T19:53:20.568Z,99290.53
2022-12-06T19:56:22.532Z,99293.69
2022-12-06T19:59:27.349Z,99298.53
2022-12-06T20:02:29.049Z,99299.59
2022-12-06T20:05:30.698Z,99291.06
2022-12-06T20:08:32.542Z,99288.69
2022-12-06T20:11:57.077Z,99291.84
2022-12-06T20:14:58.676Z,99301.72
2022-12-06T20:18:00.294Z,99294.25
2022-12-06T20:21:01.950Z,99291.56
2022-12-06T20:24:04.009Z,99292.66
2022-12-06T20:27:05.791Z,99290.53
2022-12-06T20:30:08.082Z,99295.28
2022-12-06T20:33:09.653Z,99289.41
2022-12-06T20:36:12.137Z,99299.84
2022-12-06T20:39:22.614Z,99298.81
2022-12-06T20:42:24.319Z,99300.13
2022-12-06T20:45:25.897Z,99301.75
2022-12-06T20:48:27.505Z,99301.22
2022-12-06T20:51:30.498Z,99297.72
2022-12-06T20:54:32.300Z,99301.22
2022-12-06T20:57:33.962Z,99293.75
2022-12-06T21:00:35.542Z,99299.06
2022-12-06T21:03:37.230Z,99299.59
2022-12-06T21:06:39.135Z,99291.06
2022-12-06T21:09:40.730Z,99291.56
2022-12-06T21:12:42.914Z,99301.19
2022-12-06T21:15:44.870Z,99301.97
2022-12-06T21:18:46.758Z,99303.31
2022-12-06T21:21:53.263Z,99302.25
2022-12-06T21:24:56.590Z,99295.31
2022-12-06T21:27:58.244Z,99301.97
2022-12-06T21:31:00.760Z,99293.97
2022-12-06T21:34:02.766Z,99291.03
2022-12-06T21:37:04.455Z,99286.50
2022-12-06T21:40:06.813Z,99301.16
2022-12-06T21:43:08.994Z,99298.00
2022-12-06T21:46:16.258Z,99303.31
2022-12-06T21:49:17.945Z,99303.88
2022-12-06T21:52:19.829Z,99304.91
2022-12-06T21:55:21.723Z,99306.22
2022-12-06T21:58:23.924Z,99311.56
2022-12-06T22:01:30.039Z,99307.03
2022-12-06T22:04:31.710Z,99306.00
2022-12-06T22:07:33.628Z,99308.13
2022-12-06T22:10:40.011Z,99318.53
2022-12-06T22:13:42.654Z,99306.00
2022-12-06T22:16:44.269Z,99303.38
2022-12-06T22:19:45.932Z,99310.03
2022-12-06T22:22:47.527Z,99320.44
2022-12-06T22:25:49.098Z,99325.50
2022-12-06T22:28:51.168Z,99309.47
2022-12-06T22:31:52.860Z,99320.72
2022-12-06T22:34:54.450Z,99313.47
2022-12-06T22:37:56.130Z,99300.13
2022-12-06T22:40:59.465Z,99314.00
2022-12-06T22:44:02.852Z,99316.69
2022-12-06T22:47:04.602Z,99322.28
2022-12-06T22:50:07.111Z,99321.47
2022-12-06T22:53:08.738Z,99313.22
2022-12-06T22:56:11.023Z,99311.06
2022-12-06T22:59:13.029Z,99316.72
2022-12-06T23:02:14.752Z,99324.44
2022-12-06T23:05:17.281Z,99314.84
2022-12-06T23:08:18.982Z,99314.56
2022-12-06T23:11:29.780Z,99312.44
2022-12-06T23:14:31.417Z,99314.00
2022-12-06T23:17:33.522Z,99314.00
2022-12-06T23:20:35.185Z,99303.88
2022-12-06T23:23:38.188Z,99316.69
2022-12-06T23:26:45.344Z,99310.03
2022-12-06T23:29:46.977Z,99306.03
2022-12-06T23:32:48.573Z,99319.09
2022-12-06T23:35:50.199Z,99314.59
2022-12-06T23:38:52.407Z,99323.09
2022-12-06T23:41:54.220Z,99323.41
2022-12-06T23:44:55.806Z,99312.78
2022-12-06T23:47:57.493Z,99319.66
2022-12-06T23:51:11.476Z,99331.38
2022-12-06T23:54:14.832Z,99315.09
2022-12-06T23:57:16.492Z,99316.19
